OMS206 OERK-OOMS
Flight info
| Callsign | OMS206 |
|---|---|
| Flight time | 1h 44m |
| Altitude | 37000 |
| Route | RESAL T533 RAPMA DCT KUVSO DCT KATIT DCT MIDGU M717 PUTSO N685 LAKLU G216 MCT |
| Aircraft | A20N/M-SDE2E3FGHIRWXY/LB1 |
Departure
| Time | 2026-04-27 14:06 |
|---|---|
| Airport | King Khalid International Airport (OERK) |
Arrival
| Time | 2026-04-27 15:50 |
|---|---|
| Airport | Muscat International Airport (OOMS) |
| Time | Latitude | Longitude | Altitude | Speed | Heading |
|---|---|---|---|---|---|
| 2026-04-27 13:25 | 24.94666 | 46.71541 | 2036 ft | 0 kts | 243° |
| 2026-04-27 13:50 | 24.94672 | 46.71555 | 2036 ft | 3 kts | 245° |
| 2026-04-27 13:50 | 24.94680 | 46.71577 | 2042 ft | 3 kts | 253° |
| 2026-04-27 13:50 | 24.94684 | 46.71600 | 2038 ft | 3 kts | 274° |
| 2026-04-27 13:51 | 24.94679 | 46.71619 | 2039 ft | 3 kts | 326° |
| 2026-04-27 13:51 | 24.94677 | 46.71622 | 2036 ft | 1 kts | 331° |
| 2026-04-27 13:54 | 24.94683 | 46.71618 | 2040 ft | 2 kts | 331° |
| 2026-04-27 13:54 | 24.94706 | 46.71604 | 2040 ft | 5 kts | 331° |
| 2026-04-27 13:55 | 24.94747 | 46.71579 | 2042 ft | 8 kts | 331° |
| 2026-04-27 13:55 | 24.94805 | 46.71543 | 2044 ft | 11 kts | 330° |
| 2026-04-27 13:55 | 24.94879 | 46.71495 | 2042 ft | 14 kts | 329° |
| 2026-04-27 13:55 | 24.94969 | 46.71435 | 2038 ft | 16 kts | 329° |
| 2026-04-27 13:56 | 24.95075 | 46.71364 | 2037 ft | 19 kts | 329° |
| 2026-04-27 13:56 | 24.95195 | 46.71287 | 2035 ft | 21 kts | 330° |
| 2026-04-27 13:56 | 24.95328 | 46.71202 | 2034 ft | 23 kts | 329° |
| 2026-04-27 13:56 | 24.95342 | 46.71146 | 2033 ft | 7 kts | 268° |
| 2026-04-27 13:57 | 24.95332 | 46.71083 | 2037 ft | 9 kts | 246° |
| 2026-04-27 13:57 | 24.95297 | 46.71015 | 2039 ft | 11 kts | 239° |
| 2026-04-27 13:57 | 24.95256 | 46.70938 | 2041 ft | 13 kts | 240° |
| 2026-04-27 13:57 | 24.95211 | 46.70850 | 2037 ft | 14 kts | 240° |
| 2026-04-27 13:58 | 24.95160 | 46.70754 | 2035 ft | 15 kts | 239° |
| 2026-04-27 13:58 | 24.95104 | 46.70649 | 2035 ft | 16 kts | 239° |
| 2026-04-27 13:58 | 24.95044 | 46.70537 | 2037 ft | 18 kts | 240° |
| 2026-04-27 13:58 | 24.94981 | 46.70417 | 2033 ft | 19 kts | 239° |
| 2026-04-27 13:59 | 24.94914 | 46.70293 | 2032 ft | 19 kts | 240° |
| 2026-04-27 13:59 | 24.94849 | 46.70168 | 2035 ft | 16 kts | 240° |
| 2026-04-27 13:59 | 24.94789 | 46.70055 | 2033 ft | 18 kts | 240° |
| 2026-04-27 13:59 | 24.94727 | 46.69935 | 2030 ft | 19 kts | 240° |
| 2026-04-27 14:00 | 24.94659 | 46.69809 | 2029 ft | 19 kts | 239° |
| 2026-04-27 14:00 | 24.94614 | 46.69721 | 2028 ft | 20 kts | 241° |
| 2026-04-27 14:00 | 24.94544 | 46.69586 | 2028 ft | 20 kts | 240° |
| 2026-04-27 14:00 | 24.94513 | 46.69485 | 2026 ft | 14 kts | 281° |
| 2026-04-27 14:01 | 24.94588 | 46.69412 | 2029 ft | 16 kts | 332° |
| 2026-04-27 14:01 | 24.94690 | 46.69354 | 2029 ft | 17 kts | 331° |
| 2026-04-27 14:01 | 24.94799 | 46.69282 | 2027 ft | 19 kts | 330° |
| 2026-04-27 14:01 | 24.94921 | 46.69207 | 2029 ft | 21 kts | 332° |
| 2026-04-27 14:02 | 24.95051 | 46.69125 | 2028 ft | 22 kts | 329° |
| 2026-04-27 14:02 | 24.95188 | 46.69037 | 2032 ft | 23 kts | 330° |
| 2026-04-27 14:02 | 24.95332 | 46.68948 | 2031 ft | 25 kts | 331° |
| 2026-04-27 14:02 | 24.95482 | 46.68851 | 2035 ft | 26 kts | 329° |
| 2026-04-27 14:03 | 24.95639 | 46.68751 | 2033 ft | 26 kts | 330° |
| 2026-04-27 14:03 | 24.95803 | 46.68649 | 2034 ft | 27 kts | 329° |
| 2026-04-27 14:03 | 24.95971 | 46.68542 | 2035 ft | 28 kts | 331° |
| 2026-04-27 14:03 | 24.96145 | 46.68435 | 2033 ft | 29 kts | 330° |
| 2026-04-27 14:04 | 24.96321 | 46.68322 | 2037 ft | 29 kts | 329° |
| 2026-04-27 14:04 | 24.96498 | 46.68207 | 2038 ft | 30 kts | 331° |
| 2026-04-27 14:04 | 24.96645 | 46.68109 | 2039 ft | 10 kts | 300° |
| 2026-04-27 14:04 | 24.96646 | 46.68034 | 2040 ft | 11 kts | 248° |
| 2026-04-27 14:05 | 24.96611 | 46.67961 | 2040 ft | 11 kts | 240° |
| 2026-04-27 14:05 | 24.96569 | 46.67888 | 2041 ft | 12 kts | 235° |
| 2026-04-27 14:05 | 24.96510 | 46.67867 | 2042 ft | 9 kts | 144° |
| 2026-04-27 14:05 | 24.96431 | 46.67922 | 2038 ft | 27 kts | 150° |
| 2026-04-27 14:06 | 24.96056 | 46.68139 | 2034 ft | 93 kts | 150° |
| 2026-04-27 14:06 | 24.95331 | 46.68600 | 2036 ft | 145 kts | 151° |
| 2026-04-27 14:06 | 24.94341 | 46.69214 | 2199 ft | 171 kts | 152° |
| 2026-04-27 14:06 | 24.93326 | 46.69892 | 2819 ft | 173 kts | 153° |
| 2026-04-27 14:07 | 24.92182 | 46.70397 | 3249 ft | 186 kts | 163° |
| 2026-04-27 14:07 | 24.90879 | 46.70858 | 3465 ft | 210 kts | 161° |
| 2026-04-27 14:07 | 24.89443 | 46.71409 | 3770 ft | 228 kts | 160° |
| 2026-04-27 14:07 | 24.87851 | 46.72007 | 3936 ft | 256 kts | 162° |
| 2026-04-27 14:08 | 24.86069 | 46.72552 | 4202 ft | 280 kts | 168° |
| 2026-04-27 14:08 | 24.84087 | 46.72883 | 4741 ft | 291 kts | 171° |
| 2026-04-27 14:08 | 24.82145 | 46.73310 | 5891 ft | 276 kts | 168° |
| 2026-04-27 14:08 | 24.80288 | 46.73669 | 6996 ft | 268 kts | 173° |
| 2026-04-27 14:09 | 24.78424 | 46.73976 | 7751 ft | 274 kts | 173° |
| 2026-04-27 14:09 | 24.76520 | 46.74304 | 8442 ft | 280 kts | 173° |
| 2026-04-27 14:09 | 24.74573 | 46.74642 | 9149 ft | 285 kts | 174° |
| 2026-04-27 14:09 | 24.72616 | 46.74980 | 9865 ft | 290 kts | 174° |
| 2026-04-27 14:10 | 24.70596 | 46.75324 | 10415 ft | 302 kts | 174° |
| 2026-04-27 14:10 | 24.68436 | 46.75684 | 10624 ft | 324 kts | 174° |
| 2026-04-27 14:10 | 24.66137 | 46.76069 | 10944 ft | 341 kts | 174° |
| 2026-04-27 14:10 | 24.63773 | 46.76470 | 11595 ft | 346 kts | 174° |
| 2026-04-27 14:11 | 24.61389 | 46.76876 | 12334 ft | 348 kts | 174° |
| 2026-04-27 14:11 | 24.58992 | 46.77462 | 13012 ft | 356 kts | 166° |
| 2026-04-27 14:11 | 24.56663 | 46.78468 | 13709 ft | 363 kts | 157° |
| 2026-04-27 14:11 | 24.54442 | 46.79845 | 14325 ft | 369 kts | 153° |
| 2026-04-27 14:12 | 24.52228 | 46.81284 | 14983 ft | 371 kts | 153° |
| 2026-04-27 14:12 | 24.50023 | 46.82706 | 15610 ft | 374 kts | 153° |
| 2026-04-27 14:12 | 24.47760 | 46.84160 | 16238 ft | 377 kts | 153° |
| 2026-04-27 14:12 | 24.45485 | 46.85618 | 16854 ft | 381 kts | 153° |
| 2026-04-27 14:13 | 24.43184 | 46.87092 | 17461 ft | 384 kts | 154° |
| 2026-04-27 14:13 | 24.40866 | 46.88577 | 18053 ft | 387 kts | 154° |
| 2026-04-27 14:13 | 24.38521 | 46.90078 | 18580 ft | 391 kts | 154° |
| 2026-04-27 14:13 | 24.36163 | 46.91587 | 19062 ft | 394 kts | 154° |
| 2026-04-27 14:14 | 24.33814 | 46.93091 | 19561 ft | 397 kts | 155° |
| 2026-04-27 14:14 | 24.31414 | 46.94626 | 20038 ft | 400 kts | 155° |
| 2026-04-27 14:14 | 24.29001 | 46.96169 | 20539 ft | 403 kts | 155° |
| 2026-04-27 14:14 | 24.26567 | 46.97724 | 21015 ft | 407 kts | 155° |
| 2026-04-27 14:15 | 24.24104 | 46.99297 | 21473 ft | 411 kts | 156° |
| 2026-04-27 14:15 | 24.21626 | 47.00880 | 21958 ft | 414 kts | 156° |
| 2026-04-27 14:15 | 24.19129 | 47.02474 | 22448 ft | 417 kts | 156° |
| 2026-04-27 14:15 | 24.16616 | 47.04076 | 22907 ft | 419 kts | 156° |
| 2026-04-27 14:16 | 24.14089 | 47.05685 | 23443 ft | 421 kts | 156° |
| 2026-04-27 14:16 | 24.11549 | 47.07304 | 23814 ft | 425 kts | 156° |
| 2026-04-27 14:16 | 24.08999 | 47.08974 | 24177 ft | 429 kts | 154° |
| 2026-04-27 14:16 | 24.06456 | 47.10724 | 24557 ft | 433 kts | 154° |
| 2026-04-27 14:17 | 24.03901 | 47.12503 | 24912 ft | 437 kts | 154° |
| 2026-04-27 14:17 | 24.01325 | 47.14291 | 25271 ft | 440 kts | 154° |
| 2026-04-27 14:17 | 23.98730 | 47.16082 | 25622 ft | 443 kts | 154° |
| 2026-04-27 14:17 | 23.96141 | 47.17860 | 25968 ft | 446 kts | 155° |
| 2026-04-27 14:18 | 23.93500 | 47.19670 | 26297 ft | 449 kts | 155° |
| 2026-04-27 14:18 | 23.90843 | 47.21487 | 26636 ft | 452 kts | 155° |
| 2026-04-27 14:18 | 23.88168 | 47.23316 | 26967 ft | 455 kts | 155° |
| 2026-04-27 14:18 | 23.85474 | 47.25157 | 27292 ft | 458 kts | 155° |
| 2026-04-27 14:19 | 23.82761 | 47.27010 | 27611 ft | 461 kts | 155° |
| 2026-04-27 14:19 | 23.80036 | 47.28870 | 27927 ft | 464 kts | 155° |
| 2026-04-27 14:19 | 23.77281 | 47.30748 | 28168 ft | 468 kts | 155° |
| 2026-04-27 14:19 | 23.74515 | 47.32632 | 28473 ft | 470 kts | 155° |
| 2026-04-27 14:20 | 23.71733 | 47.34526 | 28768 ft | 473 kts | 155° |
| 2026-04-27 14:20 | 23.68931 | 47.36434 | 29052 ft | 476 kts | 155° |
| 2026-04-27 14:20 | 23.66109 | 47.38356 | 29334 ft | 478 kts | 155° |
| 2026-04-27 14:20 | 23.63278 | 47.40283 | 29613 ft | 481 kts | 155° |
| 2026-04-27 14:21 | 23.60431 | 47.42220 | 29887 ft | 484 kts | 155° |
| 2026-04-27 14:21 | 23.57571 | 47.44164 | 30153 ft | 485 kts | 155° |
| 2026-04-27 14:21 | 23.54688 | 47.46124 | 30378 ft | 488 kts | 155° |
| 2026-04-27 14:21 | 23.51861 | 47.48116 | 30589 ft | 496 kts | 149° |
| 2026-04-27 14:22 | 23.49260 | 47.50667 | 30815 ft | 509 kts | 137° |
| 2026-04-27 14:22 | 23.47107 | 47.53776 | 31063 ft | 520 kts | 126° |
| 2026-04-27 14:22 | 23.45496 | 47.57330 | 31337 ft | 528 kts | 114° |
| 2026-04-27 14:22 | 23.44496 | 47.61196 | 31592 ft | 534 kts | 102° |
| 2026-04-27 14:23 | 23.44142 | 47.65228 | 31843 ft | 537 kts | 91° |
| 2026-04-27 14:23 | 23.44122 | 47.69289 | 32170 ft | 535 kts | 91° |
| 2026-04-27 14:23 | 23.44049 | 47.73341 | 32448 ft | 535 kts | 93° |
| 2026-04-27 14:23 | 23.43839 | 47.77391 | 32711 ft | 535 kts | 95° |
| 2026-04-27 14:24 | 23.43523 | 47.81437 | 32971 ft | 535 kts | 96° |
| 2026-04-27 14:24 | 23.43149 | 47.85469 | 33249 ft | 535 kts | 97° |
| 2026-04-27 14:24 | 23.42756 | 47.89442 | 33487 ft | 535 kts | 97° |
| 2026-04-27 14:24 | 23.42350 | 47.93465 | 33717 ft | 535 kts | 97° |
| 2026-04-27 14:25 | 23.41942 | 47.97493 | 33924 ft | 535 kts | 97° |
| 2026-04-27 14:25 | 23.41535 | 48.01524 | 34165 ft | 533 kts | 97° |
| 2026-04-27 14:25 | 23.41130 | 48.05535 | 34397 ft | 532 kts | 97° |
| 2026-04-27 14:25 | 23.40726 | 48.09536 | 34623 ft | 531 kts | 97° |
| 2026-04-27 14:26 | 23.40322 | 48.13524 | 34836 ft | 530 kts | 97° |
| 2026-04-27 14:26 | 23.39919 | 48.17507 | 35037 ft | 529 kts | 97° |
| 2026-04-27 14:26 | 23.39515 | 48.21481 | 35245 ft | 528 kts | 97° |
| 2026-04-27 14:26 | 23.39110 | 48.25449 | 35454 ft | 526 kts | 97° |
| 2026-04-27 14:27 | 23.38707 | 48.29397 | 35698 ft | 524 kts | 96° |
| 2026-04-27 14:27 | 23.38303 | 48.33345 | 35903 ft | 524 kts | 96° |
| 2026-04-27 14:27 | 23.38084 | 48.37293 | 36097 ft | 523 kts | 92° |
| 2026-04-27 14:27 | 23.37932 | 48.41241 | 36300 ft | 522 kts | 92° |
| 2026-04-27 14:28 | 23.37780 | 48.45134 | 36502 ft | 521 kts | 92° |
| 2026-04-27 14:28 | 23.37623 | 48.49067 | 36706 ft | 520 kts | 92° |
| 2026-04-27 14:28 | 23.37465 | 48.52996 | 36898 ft | 519 kts | 92° |
| 2026-04-27 14:28 | 23.37305 | 48.56918 | 37079 ft | 518 kts | 92° |
| 2026-04-27 14:29 | 23.37144 | 48.60834 | 37264 ft | 517 kts | 92° |
| 2026-04-27 14:29 | 23.36982 | 48.64742 | 37452 ft | 516 kts | 92° |
| 2026-04-27 14:29 | 23.36820 | 48.68646 | 37642 ft | 515 kts | 92° |
| 2026-04-27 14:29 | 23.36657 | 48.72537 | 37811 ft | 514 kts | 92° |
| 2026-04-27 14:30 | 23.36493 | 48.76425 | 37961 ft | 514 kts | 92° |
| 2026-04-27 14:30 | 23.36329 | 48.80303 | 38101 ft | 513 kts | 92° |
| 2026-04-27 14:30 | 23.36166 | 48.84132 | 38240 ft | 513 kts | 92° |
| 2026-04-27 14:31 | 23.35833 | 48.91879 | 38267 ft | 510 kts | 92° |
| 2026-04-27 14:31 | 23.35499 | 48.99573 | 38266 ft | 509 kts | 92° |
| 2026-04-27 14:32 | 23.35069 | 49.07281 | 38264 ft | 510 kts | 97° |
| 2026-04-27 14:32 | 23.33984 | 49.14905 | 38263 ft | 509 kts | 99° |
| 2026-04-27 14:33 | 23.32892 | 49.22525 | 38263 ft | 509 kts | 99° |
| 2026-04-27 14:33 | 23.31799 | 49.30156 | 38265 ft | 510 kts | 99° |
| 2026-04-27 14:34 | 23.30706 | 49.37731 | 38265 ft | 510 kts | 99° |
| 2026-04-27 14:34 | 23.29601 | 49.45357 | 38250 ft | 510 kts | 99° |
| 2026-04-27 14:35 | 23.28495 | 49.52959 | 38268 ft | 507 kts | 99° |
| 2026-04-27 14:35 | 23.27388 | 49.60540 | 38265 ft | 507 kts | 99° |
| 2026-04-27 14:36 | 23.26277 | 49.68123 | 38267 ft | 507 kts | 99° |
| 2026-04-27 14:36 | 23.25170 | 49.75655 | 38270 ft | 507 kts | 99° |
| 2026-04-27 14:37 | 23.24051 | 49.83241 | 38458 ft | 507 kts | 99° |
| 2026-04-27 14:37 | 23.23491 | 49.87027 | 38583 ft | 506 kts | 99° |
| 2026-04-27 14:37 | 23.22932 | 49.90803 | 38700 ft | 506 kts | 99° |
| 2026-04-27 14:38 | 23.21810 | 49.98356 | 38771 ft | 505 kts | 99° |
| 2026-04-27 14:38 | 23.20691 | 50.05870 | 38772 ft | 502 kts | 99° |
| 2026-04-27 14:39 | 23.19569 | 50.13373 | 38768 ft | 503 kts | 99° |
| 2026-04-27 14:39 | 23.18449 | 50.20839 | 38774 ft | 503 kts | 99° |
| 2026-04-27 14:40 | 23.17315 | 50.28378 | 38779 ft | 505 kts | 99° |
| 2026-04-27 14:40 | 23.16174 | 50.35928 | 38773 ft | 505 kts | 99° |
| 2026-04-27 14:41 | 23.15036 | 50.43445 | 38781 ft | 504 kts | 99° |
| 2026-04-27 14:41 | 23.13888 | 50.51000 | 38774 ft | 506 kts | 100° |
| 2026-04-27 14:42 | 23.12748 | 50.58468 | 38771 ft | 502 kts | 99° |
| 2026-04-27 14:42 | 23.11604 | 50.65950 | 38774 ft | 503 kts | 100° |
| 2026-04-27 14:43 | 23.10451 | 50.73462 | 38777 ft | 503 kts | 100° |
| 2026-04-27 14:43 | 23.09297 | 50.80953 | 38784 ft | 503 kts | 100° |
| 2026-04-27 14:44 | 23.08145 | 50.88409 | 38783 ft | 503 kts | 100° |
| 2026-04-27 14:44 | 23.06983 | 50.95909 | 38785 ft | 503 kts | 100° |
| 2026-04-27 14:45 | 23.05817 | 51.03411 | 38787 ft | 503 kts | 100° |
| 2026-04-27 14:45 | 23.04650 | 51.10892 | 38768 ft | 503 kts | 100° |
| 2026-04-27 14:46 | 23.03485 | 51.18337 | 38780 ft | 499 kts | 100° |
| 2026-04-27 14:46 | 23.02318 | 51.25772 | 38781 ft | 500 kts | 100° |
| 2026-04-27 14:47 | 23.01153 | 51.33169 | 38783 ft | 500 kts | 100° |
| 2026-04-27 14:47 | 22.99981 | 51.40590 | 38782 ft | 499 kts | 100° |
| 2026-04-27 14:48 | 22.99001 | 51.46778 | 38788 ft | 499 kts | 100° |
| 2026-04-27 14:48 | 22.97229 | 51.57918 | 38778 ft | 500 kts | 100° |
| 2026-04-27 14:49 | 22.96042 | 51.65357 | 38790 ft | 500 kts | 100° |
| 2026-04-27 14:49 | 22.94853 | 51.72785 | 38780 ft | 499 kts | 100° |
| 2026-04-27 14:50 | 22.93662 | 51.80197 | 38777 ft | 498 kts | 100° |
| 2026-04-27 14:50 | 22.92470 | 51.87599 | 38779 ft | 498 kts | 101° |
| 2026-04-27 14:51 | 22.91276 | 51.94991 | 38782 ft | 498 kts | 101° |
| 2026-04-27 14:51 | 22.90085 | 52.02341 | 38778 ft | 498 kts | 101° |
| 2026-04-27 14:52 | 22.88883 | 52.09736 | 38783 ft | 498 kts | 101° |
| 2026-04-27 14:52 | 22.87676 | 52.17141 | 38783 ft | 498 kts | 101° |
| 2026-04-27 14:53 | 22.86467 | 52.24531 | 38774 ft | 497 kts | 101° |
| 2026-04-27 14:53 | 22.85260 | 52.31891 | 38837 ft | 496 kts | 101° |
| 2026-04-27 14:54 | 22.84653 | 52.35584 | 38943 ft | 495 kts | 101° |
| 2026-04-27 14:54 | 22.84056 | 52.39215 | 39045 ft | 495 kts | 101° |
| 2026-04-27 14:54 | 22.82845 | 52.46568 | 39215 ft | 495 kts | 101° |
| 2026-04-27 14:55 | 22.81748 | 52.53938 | 39280 ft | 495 kts | 97° |
| 2026-04-27 14:55 | 22.80915 | 52.61335 | 39276 ft | 494 kts | 97° |
| 2026-04-27 14:56 | 22.80058 | 52.68730 | 39283 ft | 495 kts | 97° |
| 2026-04-27 14:56 | 22.79167 | 52.76120 | 39274 ft | 494 kts | 98° |
| 2026-04-27 14:57 | 22.78265 | 52.83514 | 39279 ft | 496 kts | 98° |
| 2026-04-27 14:57 | 22.77363 | 52.90876 | 39280 ft | 495 kts | 98° |
| 2026-04-27 14:58 | 22.76459 | 52.98243 | 39279 ft | 493 kts | 98° |
| 2026-04-27 14:58 | 22.75547 | 53.05630 | 39275 ft | 495 kts | 97° |
| 2026-04-27 14:59 | 22.74633 | 53.13016 | 39282 ft | 494 kts | 98° |
| 2026-04-27 14:59 | 22.73717 | 53.20393 | 39281 ft | 494 kts | 98° |
| 2026-04-27 15:00 | 22.72795 | 53.27785 | 39275 ft | 495 kts | 98° |
| 2026-04-27 15:00 | 22.71875 | 53.35131 | 39281 ft | 495 kts | 98° |
| 2026-04-27 15:01 | 22.70945 | 53.42531 | 39281 ft | 495 kts | 98° |
| 2026-04-27 15:01 | 22.70011 | 53.49935 | 39280 ft | 495 kts | 98° |
| 2026-04-27 15:02 | 22.69080 | 53.57273 | 39277 ft | 494 kts | 98° |
| 2026-04-27 15:02 | 22.68146 | 53.64625 | 39280 ft | 493 kts | 98° |
| 2026-04-27 15:03 | 22.67206 | 53.71995 | 39283 ft | 493 kts | 98° |
| 2026-04-27 15:03 | 22.66271 | 53.79295 | 39284 ft | 495 kts | 98° |
| 2026-04-27 15:04 | 22.65323 | 53.86671 | 39279 ft | 494 kts | 98° |
| 2026-04-27 15:04 | 22.64370 | 53.94054 | 39280 ft | 494 kts | 98° |
| 2026-04-27 15:05 | 22.63423 | 54.01371 | 39278 ft | 494 kts | 98° |
| 2026-04-27 15:05 | 22.62464 | 54.08750 | 39277 ft | 494 kts | 98° |
| 2026-04-27 15:06 | 22.61504 | 54.16105 | 39278 ft | 493 kts | 98° |
| 2026-04-27 15:06 | 22.60540 | 54.23469 | 39270 ft | 493 kts | 98° |
| 2026-04-27 15:07 | 22.59576 | 54.30808 | 39284 ft | 492 kts | 98° |
| 2026-04-27 15:07 | 22.58608 | 54.38151 | 39279 ft | 492 kts | 98° |
| 2026-04-27 15:08 | 22.57643 | 54.45444 | 39281 ft | 492 kts | 98° |
| 2026-04-27 15:08 | 22.56669 | 54.52772 | 39280 ft | 492 kts | 98° |
| 2026-04-27 15:09 | 22.55692 | 54.60108 | 39281 ft | 492 kts | 98° |
| 2026-04-27 15:09 | 22.54712 | 54.67430 | 39277 ft | 492 kts | 98° |
| 2026-04-27 15:10 | 22.53729 | 54.74757 | 39278 ft | 492 kts | 98° |
| 2026-04-27 15:10 | 22.52742 | 54.82080 | 39277 ft | 491 kts | 98° |
| 2026-04-27 15:11 | 22.51761 | 54.89339 | 39277 ft | 491 kts | 98° |
| 2026-04-27 15:11 | 22.50766 | 54.96668 | 39284 ft | 491 kts | 98° |
| 2026-04-27 15:12 | 22.49773 | 55.03962 | 39286 ft | 490 kts | 98° |
| 2026-04-27 15:12 | 22.48776 | 55.11263 | 39287 ft | 490 kts | 98° |
| 2026-04-27 15:13 | 22.47777 | 55.18556 | 39287 ft | 490 kts | 98° |
| 2026-04-27 15:13 | 22.46782 | 55.25795 | 39284 ft | 489 kts | 98° |
| 2026-04-27 15:14 | 22.46068 | 55.33071 | 39279 ft | 487 kts | 86° |
| 2026-04-27 15:14 | 22.46435 | 55.36692 | 39274 ft | 484 kts | 75° |
| 2026-04-27 15:14 | 22.47365 | 55.40176 | 39269 ft | 479 kts | 65° |
| 2026-04-27 15:15 | 22.50596 | 55.46386 | 39266 ft | 473 kts | 53° |
| 2026-04-27 15:15 | 22.54218 | 55.52294 | 39266 ft | 473 kts | 53° |
| 2026-04-27 15:16 | 22.57850 | 55.58251 | 39279 ft | 474 kts | 53° |
| 2026-04-27 15:16 | 22.61481 | 55.64213 | 39279 ft | 474 kts | 53° |
| 2026-04-27 15:17 | 22.65112 | 55.70178 | 39286 ft | 475 kts | 53° |
| 2026-04-27 15:17 | 22.68747 | 55.76156 | 39291 ft | 476 kts | 53° |
| 2026-04-27 15:18 | 22.72367 | 55.82116 | 39303 ft | 476 kts | 53° |
| 2026-04-27 15:18 | 22.76015 | 55.88128 | 39317 ft | 477 kts | 53° |
| 2026-04-27 15:19 | 22.79669 | 55.94158 | 39301 ft | 478 kts | 53° |
| 2026-04-27 15:19 | 22.83320 | 56.00191 | 39304 ft | 478 kts | 53° |
| 2026-04-27 15:20 | 22.86946 | 56.06186 | 39305 ft | 478 kts | 53° |
| 2026-04-27 15:20 | 22.90595 | 56.12227 | 39307 ft | 478 kts | 53° |
| 2026-04-27 15:21 | 22.94242 | 56.18273 | 39311 ft | 478 kts | 53° |
| 2026-04-27 15:21 | 22.97881 | 56.24311 | 39311 ft | 478 kts | 53° |
| 2026-04-27 15:22 | 23.01520 | 56.30358 | 39314 ft | 478 kts | 53° |
| 2026-04-27 15:22 | 23.05060 | 56.36431 | 39319 ft | 479 kts | 55° |
| 2026-04-27 15:23 | 23.08493 | 56.42637 | 39055 ft | 479 kts | 55° |
| 2026-04-27 15:23 | 23.10212 | 56.45733 | 38828 ft | 478 kts | 55° |
| 2026-04-27 15:23 | 23.11933 | 56.48821 | 38615 ft | 479 kts | 55° |
| 2026-04-27 15:24 | 23.13663 | 56.51917 | 38373 ft | 480 kts | 55° |
| 2026-04-27 15:24 | 23.15396 | 56.55017 | 38115 ft | 480 kts | 55° |
| 2026-04-27 15:24 | 23.17130 | 56.58119 | 37853 ft | 480 kts | 54° |
| 2026-04-27 15:24 | 23.18864 | 56.61225 | 37594 ft | 480 kts | 54° |
| 2026-04-27 15:25 | 23.20600 | 56.64327 | 37349 ft | 481 kts | 54° |
| 2026-04-27 15:25 | 23.22343 | 56.67435 | 37110 ft | 483 kts | 54° |
| 2026-04-27 15:25 | 23.24098 | 56.70565 | 36865 ft | 486 kts | 54° |
| 2026-04-27 15:25 | 23.25852 | 56.73698 | 36630 ft | 485 kts | 54° |
| 2026-04-27 15:26 | 23.27607 | 56.76837 | 36388 ft | 484 kts | 54° |
| 2026-04-27 15:26 | 23.29361 | 56.79975 | 36144 ft | 485 kts | 54° |
| 2026-04-27 15:26 | 23.31113 | 56.83111 | 35911 ft | 485 kts | 54° |
| 2026-04-27 15:26 | 23.32783 | 56.86305 | 35678 ft | 487 kts | 60° |
| 2026-04-27 15:27 | 23.34133 | 56.89698 | 35446 ft | 491 kts | 66° |
| 2026-04-27 15:27 | 23.35140 | 56.93269 | 35216 ft | 495 kts | 73° |
| 2026-04-27 15:27 | 23.35830 | 56.96901 | 34964 ft | 497 kts | 76° |
| 2026-04-27 15:27 | 23.36507 | 57.00608 | 34410 ft | 499 kts | 75° |
| 2026-04-27 15:28 | 23.37196 | 57.04330 | 33662 ft | 503 kts | 75° |
| 2026-04-27 15:28 | 23.37890 | 57.08072 | 32682 ft | 507 kts | 76° |
| 2026-04-27 15:28 | 23.38590 | 57.11860 | 31661 ft | 513 kts | 76° |
| 2026-04-27 15:28 | 23.39296 | 57.15700 | 30724 ft | 518 kts | 76° |
| 2026-04-27 15:29 | 23.40000 | 57.19542 | 30096 ft | 514 kts | 77° |
| 2026-04-27 15:29 | 23.40690 | 57.23323 | 29597 ft | 506 kts | 77° |
| 2026-04-27 15:29 | 23.41370 | 57.27056 | 28906 ft | 501 kts | 77° |
| 2026-04-27 15:29 | 23.42041 | 57.30731 | 28193 ft | 498 kts | 77° |
| 2026-04-27 15:30 | 23.42714 | 57.34420 | 27503 ft | 495 kts | 77° |
| 2026-04-27 15:30 | 23.43383 | 57.38093 | 26765 ft | 492 kts | 77° |
| 2026-04-27 15:30 | 23.44043 | 57.41727 | 26160 ft | 487 kts | 77° |
| 2026-04-27 15:30 | 23.44696 | 57.45328 | 25510 ft | 483 kts | 77° |
| 2026-04-27 15:31 | 23.45344 | 57.48896 | 24858 ft | 480 kts | 77° |
| 2026-04-27 15:31 | 23.45988 | 57.52451 | 24229 ft | 476 kts | 77° |
| 2026-04-27 15:31 | 23.46624 | 57.55970 | 23672 ft | 471 kts | 77° |
| 2026-04-27 15:31 | 23.47253 | 57.59455 | 23053 ft | 466 kts | 77° |
| 2026-04-27 15:32 | 23.47874 | 57.62902 | 22393 ft | 461 kts | 78° |
| 2026-04-27 15:32 | 23.48488 | 57.66313 | 21745 ft | 457 kts | 77° |
| 2026-04-27 15:32 | 23.49097 | 57.69702 | 21061 ft | 454 kts | 77° |
| 2026-04-27 15:32 | 23.49694 | 57.73018 | 20434 ft | 450 kts | 78° |
| 2026-04-27 15:33 | 23.50292 | 57.76349 | 19811 ft | 446 kts | 78° |
| 2026-04-27 15:33 | 23.50885 | 57.79649 | 19199 ft | 441 kts | 78° |
| 2026-04-27 15:33 | 23.51466 | 57.82891 | 18582 ft | 429 kts | 78° |
| 2026-04-27 15:33 | 23.52029 | 57.86039 | 18003 ft | 417 kts | 78° |
| 2026-04-27 15:34 | 23.52575 | 57.89096 | 17374 ft | 406 kts | 78° |
| 2026-04-27 15:34 | 23.53114 | 57.92117 | 16777 ft | 403 kts | 78° |
| 2026-04-27 15:34 | 23.53647 | 57.95110 | 16230 ft | 400 kts | 78° |
| 2026-04-27 15:34 | 23.54167 | 57.98030 | 15629 ft | 399 kts | 78° |
| 2026-04-27 15:35 | 23.54694 | 58.00992 | 15044 ft | 398 kts | 78° |
| 2026-04-27 15:35 | 23.55212 | 58.03908 | 14501 ft | 396 kts | 78° |
| 2026-04-27 15:35 | 23.55734 | 58.06852 | 13971 ft | 393 kts | 78° |
| 2026-04-27 15:35 | 23.56247 | 58.09747 | 13621 ft | 385 kts | 78° |
| 2026-04-27 15:36 | 23.56755 | 58.12617 | 12984 ft | 384 kts | 78° |
| 2026-04-27 15:36 | 23.57258 | 58.15463 | 12476 ft | 380 kts | 78° |
| 2026-04-27 15:36 | 23.57594 | 58.17368 | 12123 ft | 378 kts | 78° |
| 2026-04-27 15:36 | 23.58082 | 58.20132 | 11617 ft | 375 kts | 78° |
| 2026-04-27 15:37 | 23.58576 | 58.22928 | 11050 ft | 374 kts | 78° |
| 2026-04-27 15:37 | 23.59082 | 58.25665 | 10861 ft | 362 kts | 75° |
| 2026-04-27 15:37 | 23.59845 | 58.28211 | 10696 ft | 344 kts | 68° |
| 2026-04-27 15:37 | 23.60656 | 58.30605 | 10523 ft | 325 kts | 69° |
| 2026-04-27 15:38 | 23.61413 | 58.32858 | 10358 ft | 307 kts | 69° |
| 2026-04-27 15:38 | 23.62124 | 58.34987 | 10213 ft | 290 kts | 69° |
| 2026-04-27 15:38 | 23.62801 | 58.37013 | 9929 ft | 280 kts | 69° |
| 2026-04-27 15:38 | 23.63466 | 58.39000 | 9474 ft | 278 kts | 69° |
| 2026-04-27 15:39 | 23.64128 | 58.40981 | 8977 ft | 278 kts | 68° |
| 2026-04-27 15:39 | 23.64788 | 58.42958 | 8578 ft | 276 kts | 68° |
| 2026-04-27 15:39 | 23.65436 | 58.44899 | 8183 ft | 275 kts | 68° |
| 2026-04-27 15:39 | 23.66087 | 58.46851 | 7819 ft | 273 kts | 68° |
| 2026-04-27 15:40 | 23.66737 | 58.48801 | 7411 ft | 274 kts | 68° |
| 2026-04-27 15:40 | 23.67388 | 58.50753 | 7024 ft | 273 kts | 68° |
| 2026-04-27 15:40 | 23.68037 | 58.52693 | 6719 ft | 269 kts | 66° |
| 2026-04-27 15:40 | 23.69021 | 58.54329 | 6525 ft | 253 kts | 37° |
| 2026-04-27 15:41 | 23.70485 | 58.55275 | 6218 ft | 240 kts | 10° |
| 2026-04-27 15:41 | 23.72098 | 58.55503 | 5905 ft | 232 kts | 4° |
| 2026-04-27 15:41 | 23.73603 | 58.56240 | 5773 ft | 248 kts | 36° |
| 2026-04-27 15:41 | 23.74638 | 58.57782 | 5655 ft | 257 kts | 67° |
| 2026-04-27 15:42 | 23.74866 | 58.59713 | 5536 ft | 260 kts | 98° |
| 2026-04-27 15:42 | 23.74212 | 58.61537 | 5421 ft | 259 kts | 130° |
| 2026-04-27 15:42 | 23.72887 | 58.62753 | 5307 ft | 252 kts | 161° |
| 2026-04-27 15:42 | 23.71224 | 58.63093 | 5199 ft | 240 kts | 193° |
| 2026-04-27 15:43 | 23.69718 | 58.62477 | 5073 ft | 227 kts | 225° |
| 2026-04-27 15:43 | 23.68705 | 58.61219 | 4994 ft | 216 kts | 239° |
| 2026-04-27 15:43 | 23.67771 | 58.59971 | 4888 ft | 210 kts | 233° |
| 2026-04-27 15:43 | 23.66744 | 58.58842 | 4744 ft | 211 kts | 229° |
| 2026-04-27 15:44 | 23.65654 | 58.57756 | 4622 ft | 213 kts | 227° |
| 2026-04-27 15:44 | 23.64525 | 58.56681 | 4501 ft | 217 kts | 227° |
| 2026-04-27 15:44 | 23.63382 | 58.55603 | 4225 ft | 217 kts | 227° |
| 2026-04-27 15:44 | 23.62274 | 58.54495 | 3921 ft | 213 kts | 236° |
| 2026-04-27 15:45 | 23.61551 | 58.53138 | 3641 ft | 203 kts | 256° |
| 2026-04-27 15:45 | 23.61224 | 58.51675 | 3492 ft | 195 kts | 265° |
| 2026-04-27 15:45 | 23.61056 | 58.50245 | 3316 ft | 182 kts | 269° |
| 2026-04-27 15:45 | 23.60944 | 58.48931 | 3082 ft | 166 kts | 270° |
| 2026-04-27 15:46 | 23.60848 | 58.47740 | 2888 ft | 153 kts | 269° |
| 2026-04-27 15:46 | 23.60759 | 58.46602 | 2693 ft | 151 kts | 269° |
| 2026-04-27 15:46 | 23.60669 | 58.45472 | 2508 ft | 148 kts | 269° |
| 2026-04-27 15:46 | 23.60580 | 58.44361 | 2327 ft | 147 kts | 269° |
| 2026-04-27 15:47 | 23.60492 | 58.43249 | 2146 ft | 147 kts | 269° |
| 2026-04-27 15:47 | 23.60404 | 58.42139 | 1957 ft | 146 kts | 267° |
| 2026-04-27 15:47 | 23.60315 | 58.41026 | 1761 ft | 148 kts | 266° |
| 2026-04-27 15:47 | 23.60224 | 58.39908 | 1590 ft | 148 kts | 267° |
| 2026-04-27 15:48 | 23.60131 | 58.38797 | 1309 ft | 147 kts | 266° |
| 2026-04-27 15:48 | 23.60051 | 58.37688 | 1101 ft | 146 kts | 268° |
| 2026-04-27 15:48 | 23.59989 | 58.36582 | 964 ft | 145 kts | 267° |
| 2026-04-27 15:49 | 23.59818 | 58.34313 | 662 ft | 151 kts | 264° |
| 2026-04-27 15:49 | 23.59696 | 58.33198 | 502 ft | 147 kts | 265° |
| 2026-04-27 15:49 | 23.59618 | 58.32061 | 392 ft | 149 kts | 268° |
| 2026-04-27 15:49 | 23.59556 | 58.30947 | 249 ft | 146 kts | 267° |
| 2026-04-27 15:50 | 23.59446 | 58.29828 | 182 ft | 149 kts | 265° |
| 2026-04-27 15:50 | 23.59342 | 58.28715 | 45 ft | 144 kts | 265° |
| 2026-04-27 15:50 | 23.59272 | 58.27864 | 38 ft | 70 kts | 263° |
| 2026-04-27 15:50 | 23.59238 | 58.27520 | 40 ft | 43 kts | 261° |
| 2026-04-27 15:51 | 23.59209 | 58.27208 | 42 ft | 30 kts | 264° |
| 2026-04-27 15:51 | 23.59186 | 58.26999 | 42 ft | 28 kts | 269° |
| 2026-04-27 15:51 | 23.59179 | 58.26788 | 42 ft | 22 kts | 271° |
| 2026-04-27 15:51 | 23.59236 | 58.26692 | 42 ft | 15 kts | 348° |
| 2026-04-27 15:52 | 23.59277 | 58.26688 | 42 ft | 0 kts | 356° |
| 2026-04-27 15:52 | 23.59279 | 58.26688 | 38 ft | 2 kts | 356° |
| 2026-04-27 15:52 | 23.59304 | 58.26686 | 42 ft | 6 kts | 356° |
| 2026-04-27 15:53 | 23.59355 | 58.26682 | 41 ft | 9 kts | 356° |
| 2026-04-27 15:53 | 23.59428 | 58.26682 | 41 ft | 12 kts | 11° |
| 2026-04-27 15:53 | 23.59471 | 58.26756 | 41 ft | 13 kts | 82° |
| 2026-04-27 15:53 | 23.59482 | 58.26868 | 39 ft | 16 kts | 85° |
| 2026-04-27 15:54 | 23.59492 | 58.27003 | 41 ft | 19 kts | 85° |
| 2026-04-27 15:54 | 23.59503 | 58.27158 | 40 ft | 22 kts | 85° |
| 2026-04-27 15:54 | 23.59484 | 58.27277 | 40 ft | 10 kts | 155° |
| 2026-04-27 15:54 | 23.59433 | 58.27338 | 40 ft | 13 kts | 99° |
| 2026-04-27 15:55 | 23.59436 | 58.27442 | 40 ft | 15 kts | 84° |
| 2026-04-27 15:55 | 23.59444 | 58.27524 | 40 ft | 17 kts | 84° |
| 2026-04-27 15:55 | 23.59460 | 58.27713 | 40 ft | 21 kts | 85° |
| 2026-04-27 15:55 | 23.59472 | 58.27879 | 40 ft | 23 kts | 85° |
| 2026-04-27 15:56 | 23.59486 | 58.28061 | 39 ft | 25 kts | 85° |
| 2026-04-27 15:56 | 23.59503 | 58.28260 | 39 ft | 27 kts | 84° |
| 2026-04-27 15:56 | 23.59469 | 58.28464 | 38 ft | 29 kts | 113° |
| 2026-04-27 15:56 | 23.59383 | 58.28669 | 37 ft | 30 kts | 112° |
| 2026-04-27 15:57 | 23.59348 | 58.28897 | 37 ft | 32 kts | 88° |
| 2026-04-27 15:57 | 23.59348 | 58.29024 | 37 ft | 11 kts | 98° |
| 2026-04-27 15:57 | 23.59293 | 58.29077 | 38 ft | 12 kts | 167° |
| 2026-04-27 15:57 | 23.59203 | 58.29091 | 38 ft | 14 kts | 164° |
| 2026-04-27 15:58 | 23.59165 | 58.29186 | 37 ft | 16 kts | 89° |
| 2026-04-27 15:58 | 23.59087 | 58.29242 | 37 ft | 13 kts | 173° |
| 2026-04-27 15:58 | 23.59040 | 58.29270 | 37 ft | 8 kts | 107° |
| 2026-04-27 15:58 | 23.59038 | 58.29305 | 37 ft | 1 kts | 86° |
| 2026-04-27 15:59 | 23.59039 | 58.29308 | 37 ft | 0 kts | 85° |